Time;durP1;ratioP1;P1;durP2;ratioP2;P2;SDS_P1;SDS_P2;PMS_P1;PMS_P2;Temp;Humidity;BMP_temperature;BMP_pressure;BME280_temperature;BME280_humidity;BME280_pressure;Samples;Min_cycle;Max_cycle;Signal;HPM_P1;HPM_P2
2021/04/16 00:02:15;;;;;;;4.00;3.00;;;;;;;7.84;56.45;101276.19;5001374;28;19918;-81
2021/04/16 00:05:00;;;;;;;3.53;2.53;;;;;;;7.85;55.90;101275.94;4987323;28;20529;-81
2021/04/16 00:07:44;;;;;;;2.50;1.98;;;;;;;7.85;56.30;101267.00;4974636;28;20061;-81
2021/04/16 00:10:38;;;;;;;4.10;2.72;;;;;;;7.81;56.12;101266.75;4985063;28;20041;-82
2021/04/16 00:13:25;;;;;;;6.80;4.13;;;;;;;7.92;55.92;101259.38;4992279;28;20049;-81
2021/04/16 00:16:16;;;;;;;7.18;3.90;;;;;;;7.83;56.03;101255.63;4971141;28;20053;-81
2021/04/16 00:19:00;;;;;;;4.65;3.30;;;;;;;7.70;55.83;101255.22;4975472;28;20037;-81
2021/04/16 00:21:46;;;;;;;6.93;2.40;;;;;;;7.69;56.86;101248.16;4996919;28;20053;-80
2021/04/16 00:24:31;;;;;;;;;;;;;;;7.70;56.32;101246.28;4987880;28;20051;-82
2021/04/16 00:27:15;;;;;;;8.70;3.70;;;;;;;7.64;55.96;101237.38;5003197;28;19917;-80
2021/04/16 00:30:01;;;;;;;4.32;2.38;;;;;;;7.60;56.45;101238.22;4987281;28;20415;-82
2021/04/16 00:32:46;;;;;;;10.15;3.40;;;;;;;7.62;56.31;101233.31;5020475;22;20024;-79
2021/04/16 00:35:31;;;;;;;7.22;4.10;;;;;;;7.55;55.88;101236.38;4950111;28;20049;-79
2021/04/16 00:38:18;;;;;;;11.68;4.15;;;;;;;7.54;55.63;101232.03;4942090;29;20058;-79
2021/04/16 00:41:06;;;;;;;9.75;3.83;;;;;;;7.54;55.91;101233.94;4960525;28;20057;-78
2021/04/16 00:43:51;;;;;;;7.78;4.65;;;;;;;7.39;57.19;101225.94;4946120;28;20058;-79
2021/04/16 00:46:50;;;;;;;5.95;4.13;;;;;;;7.50;55.75;101219.38;4954951;28;20051;-78
2021/04/16 00:49:46;;;;;;;4.50;3.60;;;;;;;7.26;56.43;101219.28;4942948;28;20058;-79
2021/04/16 00:52:32;;;;;;;4.28;3.30;;;;;;;7.46;56.68;101221.84;4941044;29;20046;-77
2021/04/16 00:55:18;;;;;;;4.65;3.22;;;;;;;7.36;56.52;101200.28;4939737;29;20054;-77
2021/04/16 00:58:04;;;;;;;5.13;3.30;;;;;;;7.37;56.47;101211.88;4942562;28;20558;-78
2021/04/16 01:00:54;;;;;;;6.00;4.05;;;;;;;7.46;56.53;101204.78;4955298;28;20058;-79
2021/04/16 01:03:39;;;;;;;5.47;3.65;;;;;;;7.44;56.51;101202.34;4950558;28;20046;-78
2021/04/16 01:06:24;;;;;;;5.70;2.80;;;;;;;7.29;57.14;101203.28;4944007;28;20050;-78
2021/04/16 01:09:10;;;;;;;5.10;3.28;;;;;;;7.35;56.66;101203.25;4942620;29;20132;-78
2021/04/16 01:11:55;;;;;;;9.38;3.45;;;;;;;7.33;57.14;101203.50;4941598;28;20049;-80
2021/04/16 01:14:42;;;;;;;6.00;3.70;;;;;;;7.27;57.55;101197.34;4956203;28;20053;-78
2021/04/16 01:17:28;;;;;;;5.45;3.53;;;;;;;7.25;57.47;101190.59;4946014;29;20050;-80
2021/04/16 01:20:21;;;;;;;7.03;3.30;;;;;;;7.34;57.03;101196.22;4959089;28;20046;-80
2021/04/16 01:23:25;;;;;;;5.95;3.38;;;;;;;7.22;57.00;101189.25;4948291;28;20171;-79
2021/04/16 01:26:12;;;;;;;7.70;3.45;;;;;;;7.31;57.41;101179.44;4944525;28;20042;-80
2021/04/16 01:28:57;;;;;;;6.80;3.30;;;;;;;7.25;56.89;101190.59;4946344;28;20063;-80
2021/04/16 01:31:47;;;;;;;6.88;3.53;;;;;;;7.22;56.70;101191.16;4948509;28;20049;-80
2021/04/16 01:34:33;;;;;;;4.70;3.53;;;;;;;7.20;57.54;101187.94;4919620;29;765524;-79
2021/04/16 01:37:17;;;;;;;9.23;3.15;;;;;;;7.20;56.90;101193.34;4949357;28;20058;-78
2021/04/16 01:40:05;;;;;;;6.18;2.75;;;;;;;7.11;57.33;101192.31;4943381;29;20057;-79
2021/04/16 01:42:50;;;;;;;6.50;3.20;;;;;;;7.21;56.80;101186.84;4945061;28;20050;-79
2021/04/16 01:45:35;;;;;;;4.55;2.60;;;;;;;7.15;57.59;101183.38;4941722;28;20050;-80
2021/04/16 01:48:20;;;;;;;4.78;2.70;;;;;;;7.19;58.41;101189.00;4933014;28;20043;-79
2021/04/16 01:51:08;;;;;;;3.03;2.38;;;;;;;7.21;58.17;101184.16;4959870;28;20054;-78
2021/04/16 01:54:10;;;;;;;5.03;3.45;;;;;;;7.09;57.95;101186.38;4928203;29;20054;-80
2021/04/16 01:57:00;;;;;;;5.25;2.63;;;;;;;7.02;58.07;101188.56;4946341;29;20046;-80
2021/04/16 01:59:46;;;;;;;4.82;2.90;;;;;;;7.09;58.12;101184.47;4943943;29;20534;-78
2021/04/16 02:02:34;;;;;;;6.68;3.03;;;;;;;7.32;58.40;101182.97;4945647;28;20058;-80
2021/04/16 02:05:19;;;;;;;6.65;3.13;;;;;;;7.22;57.89;101178.44;4945687;29;20050;-79
2021/04/16 02:08:04;;;;;;;2.67;2.28;;;;;;;7.16;57.49;101184.19;4958109;28;20054;-80
2021/04/16 02:10:49;;;;;;;3.63;2.35;;;;;;;7.27;57.13;101175.69;4928628;29;20051;-78
2021/04/16 02:13:34;;;;;;;5.72;2.47;;;;;;;7.30;57.06;101175.16;4937142;28;20057;-79
2021/04/16 02:16:19;;;;;;;2.78;2.25;;;;;;;7.27;57.74;101186.50;4944439;29;20050;-79
2021/04/16 02:19:05;;;;;;;6.32;3.08;;;;;;;7.35;57.46;101182.41;4940542;28;20050;-79
2021/04/16 02:21:50;;;;;;;3.75;2.78;;;;;;;7.13;57.05;101179.31;4961509;28;20050;-79
2021/04/16 02:24:36;;;;;;;3.92;2.70;;;;;;;7.17;56.55;101183.06;4943765;29;20423;-79
2021/04/16 02:27:25;;;;;;;7.28;3.13;;;;;;;7.23;56.95;101185.47;4952750;28;20026;-79
2021/04/16 02:30:19;;;;;;;3.75;2.85;;;;;;;7.18;56.41;101176.56;4950647;28;20089;-80
2021/04/16 02:33:05;;;;;;;7.18;2.25;;;;;;;7.14;56.40;101184.44;4951399;28;20038;-79
2021/04/16 02:35:50;;;;;;;3.13;1.92;;;;;;;7.25;56.86;101179.78;4965340;28;20050;-79
2021/04/16 02:38:36;;;;;;;3.00;2.22;;;;;;;7.26;56.29;101182.19;4950183;29;20058;-79
2021/04/16 02:41:22;;;;;;;7.85;2.38;;;;;;;7.12;56.51;101177.69;4941825;29;20058;-78
2021/04/16 02:44:07;;;;;;;4.80;2.92;;;;;;;7.16;56.35;101186.88;4942924;29;20050;-78
2021/04/16 02:46:53;;;;;;;2.00;1.65;;;;;;;7.26;56.33;101181.41;4959298;28;20054;-78
2021/04/16 02:49:38;;;;;;;7.13;3.03;;;;;;;7.23;55.75;101171.94;4942103;29;20050;-78
2021/04/16 02:52:23;;;;;;;4.03;1.90;;;;;;;7.20;55.95;101174.41;4941558;29;20062;-79
2021/04/16 02:55:09;;;;;;;5.85;2.78;;;;;;;7.09;56.08;101172.84;4943608;28;20043;-79
2021/04/16 02:57:53;;;;;;;6.57;3.03;;;;;;;7.10;56.54;101182.59;4941647;28;20070;-78
2021/04/16 03:00:38;;;;;;;;;;;;;;;7.08;55.66;101172.03;4960423;28;20062;-80
2021/04/16 03:03:23;;;;;;;5.68;2.60;;;;;;;7.11;55.52;101173.41;4943595;28;20306;-80
2021/04/16 03:06:08;;;;;;;4.10;2.15;;;;;;;7.15;55.01;101167.13;4942718;29;20054;-79
2021/04/16 03:08:55;;;;;;;6.00;2.90;;;;;;;6.95;55.95;101166.47;4943272;28;20442;-80
2021/04/16 03:11:40;;;;;;;7.43;2.85;;;;;;;6.98;55.62;101168.59;4946519;29;20054;-80
2021/04/16 03:14:26;;;;;;;5.50;3.17;;;;;;;7.02;55.72;101166.94;4958575;28;20054;-80
2021/04/16 03:17:10;;;;;;;2.90;2.00;;;;;;;6.99;55.38;101167.50;4947315;28;20050;-79
2021/04/16 03:19:55;;;;;;;3.92;2.20;;;;;;;6.99;55.50;101162.91;4942658;28;20050;-78
2021/04/16 03:22:40;;;;;;;2.97;2.20;;;;;;;6.94;55.10;101171.06;4958018;28;20050;-78
2021/04/16 03:25:25;;;;;;;4.50;2.67;;;;;;;6.88;54.97;101167.56;4947106;28;20043;-78
2021/04/16 03:28:11;;;;;;;10.65;2.38;;;;;;;6.97;54.91;101170.50;4959053;28;20066;-79
2021/04/16 03:30:56;;;;;;;3.90;1.83;;;;;;;7.05;54.82;101169.91;4958201;28;20058;-78
2021/04/16 03:33:41;;;;;;;5.28;2.75;;;;;;;7.04;54.82;101162.06;4935151;29;20058;-79
2021/04/16 03:36:29;;;;;;;7.65;3.30;;;;;;;6.99;54.35;101165.63;4938741;29;20046;-79
2021/04/16 03:39:15;;;;;;;7.28;2.90;;;;;;;6.84;54.87;101169.22;4945441;28;20538;-78
2021/04/16 03:42:00;;;;;;;4.72;2.35;;;;;;;6.97;54.47;101169.69;4955057;28;20415;-78
2021/04/16 03:44:45;;;;;;;3.22;2.33;;;;;;;6.90;54.76;101164.59;4939409;29;20050;-78
2021/04/16 03:47:30;;;;;;;6.78;2.30;;;;;;;6.88;54.70;101158.66;4942440;29;20054;-78
2021/04/16 03:50:25;;;;;;;4.45;3.05;;;;;;;6.91;54.46;101160.78;4940306;29;20054;-78
2021/04/16 03:53:10;;;;;;;7.80;4.28;;;;;;;6.88;54.68;101159.47;4957505;28;20054;-79
2021/04/16 03:55:56;;;;;;;;;;;;;;;6.93;54.33;101161.31;4942816;29;20046;-78
2021/04/16 03:58:41;;;;;;;3.70;1.92;;;;;;;6.91;54.30;101163.50;4939081;28;20315;-78
2021/04/16 04:01:26;;;;;;;16.17;3.20;;;;;;;6.80;54.77;101160.06;4957971;28;20054;-79
2021/04/16 04:04:11;;;;;;;3.53;2.35;;;;;;;6.73;54.68;101159.56;4955986;28;20054;-79
2021/04/16 04:06:56;;;;;;;6.10;2.92;;;;;;;6.88;53.66;101156.75;4943687;29;20050;-80
2021/04/16 04:09:41;;;;;;;4.05;2.35;;;;;;;6.82;55.03;101157.06;4947274;29;20058;-81
2021/04/16 04:12:26;;;;;;;6.95;2.67;;;;;;;6.80;54.50;101151.97;4959190;28;20050;-80
2021/04/16 04:15:13;;;;;;;4.88;2.33;;;;;;;6.80;54.06;101165.47;4942713;29;20050;-80
2021/04/16 04:17:58;;;;;;;7.18;3.53;;;;;;;6.72;54.68;101163.34;4960667;28;20054;-80
2021/04/16 04:20:43;;;;;;;13.15;4.00;;;;;;;6.75;54.85;101175.50;4957538;28;20066;-81
2021/04/16 04:23:28;;;;;;;7.70;3.47;;;;;;;6.81;56.25;101174.34;4928955;29;20054;-79
2021/04/16 04:26:13;;;;;;;4.20;2.70;;;;;;;6.39;57.23;101185.66;4946260;28;20050;-80
2021/04/16 04:28:58;;;;;;;4.70;3.35;;;;;;;6.72;57.13;101187.66;4943439;28;20054;-79
2021/04/16 04:31:47;;;;;;;7.32;3.47;;;;;;;6.53;56.63;101183.97;4954535;28;20423;-79
2021/04/16 04:34:32;;;;;;;5.38;3.20;;;;;;;6.45;56.13;101187.22;4944462;28;20571;-79
2021/04/16 04:37:18;;;;;;;4.22;2.85;;;;;;;6.48;57.19;101189.38;4934864;29;20051;-80
2021/04/16 04:40:08;;;;;;;5.80;3.45;;;;;;;6.39;57.35;101186.47;4947432;28;20054;-78
2021/04/16 04:42:55;;;;;;;7.63;4.20;;;;;;;6.37;57.09;101187.81;4943210;28;20510;-78
2021/04/16 04:45:40;;;;;;;10.90;3.47;;;;;;;6.58;57.56;101186.66;4947590;28;20415;-80
2021/04/16 04:48:25;;;;;;;7.97;4.00;;;;;;;6.39;57.92;101185.66;4940663;28;20046;-80
2021/04/16 04:51:11;;;;;;;12.82;6.18;;;;;;;6.23;58.02;101187.59;4944606;28;20050;-79
2021/04/16 04:53:56;;;;;;;7.93;5.32;;;;;;;6.24;58.38;101183.00;4939978;28;20058;-81
2021/04/16 04:56:41;;;;;;;10.80;4.95;;;;;;;6.21;58.35;101183.53;4931690;29;20046;-78
2021/04/16 04:59:26;;;;;;;6.85;4.38;;;;;;;6.48;58.34;101186.69;4949843;29;20066;-76
2021/04/16 05:02:13;;;;;;;9.95;3.78;;;;;;;6.50;57.33;101191.81;4951306;28;20034;-76
2021/04/16 05:04:58;;;;;;;9.82;5.07;;;;;;;6.55;56.89;101195.31;4939263;29;20050;-76
2021/04/16 05:07:43;;;;;;;8.45;3.90;;;;;;;6.69;57.04;101190.13;4944144;29;20050;-77
2021/04/16 05:10:28;;;;;;;6.50;3.53;;;;;;;6.82;58.07;101192.19;4942607;29;20074;-76
2021/04/16 05:13:13;;;;;;;6.18;3.65;;;;;;;6.87;57.59;101197.56;4952589;28;20171;-77
2021/04/16 05:15:58;;;;;;;6.38;3.97;;;;;;;6.95;57.35;101193.50;4942322;29;20050;-77
2021/04/16 05:18:43;;;;;;;8.95;3.88;;;;;;;6.99;56.60;101198.06;4940948;29;20062;-76
2021/04/16 05:21:29;;;;;;;8.38;4.65;;;;;;;6.95;56.43;101194.31;4953788;29;20058;-76
2021/04/16 05:24:14;;;;;;;28.67;4.90;;;;;;;6.94;56.20;101194.56;4953099;28;20062;-76
2021/04/16 05:27:02;;;;;;;9.65;3.83;;;;;;;6.91;56.47;101197.84;4942685;29;20046;-77
2021/04/16 05:29:47;;;;;;;14.00;5.07;;;;;;;7.05;55.41;101191.53;4937436;28;20052;-75
2021/04/16 05:32:32;;;;;;;13.38;4.60;;;;;;;7.12;55.11;101178.50;4951047;28;20062;-75
2021/04/16 05:35:17;;;;;;;4.72;3.15;;;;;;;7.33;54.97;101187.28;4931829;29;20050;-75
2021/04/16 05:38:02;;;;;;;6.68;3.38;;;;;;;7.46;54.75;101183.97;4955074;29;20051;-76
2021/04/16 05:40:47;;;;;;;10.38;4.13;;;;;;;7.49;54.67;101188.78;4944070;29;20054;-75
2021/04/16 05:43:32;;;;;;;;;;;;;;;7.58;54.39;101194.41;4953223;28;20050;-76
2021/04/16 05:46:17;;;;;;;12.20;4.20;;;;;;;7.69;54.01;101199.44;4950588;28;19914;-76
2021/04/16 05:49:04;;;;;;;13.43;4.00;;;;;;;7.78;54.05;101196.94;4942269;29;20050;-76
2021/04/16 05:51:49;;;;;;;8.13;4.20;;;;;;;8.03;54.43;101198.59;4945942;29;20420;-75
2021/04/16 05:54:34;;;;;;;7.28;3.03;;;;;;;8.21;54.00;101197.88;4957238;28;20109;-75
2021/04/16 05:57:19;;;;;;;7.75;3.15;;;;;;;8.29;53.09;101202.63;4941963;28;20046;-75
2021/04/16 06:00:10;;;;;;;4.40;3.53;;;;;;;8.34;53.21;101204.50;4946116;29;20522;-75
2021/04/16 06:02:55;;;;;;;7.38;3.88;;;;;;;8.39;53.61;101207.97;4958140;28;20432;-75
2021/04/16 06:05:40;;;;;;;6.50;3.13;;;;;;;8.56;53.52;101213.75;4956737;28;20054;-76
2021/04/16 06:08:26;;;;;;;6.95;3.15;;;;;;;8.70;53.43;101205.72;4960293;28;20115;-75
2021/04/16 06:11:11;;;;;;;6.95;3.63;;;;;;;8.99;52.34;101216.44;4944108;29;20120;-75
2021/04/16 06:13:56;;;;;;;11.18;4.10;;;;;;;9.06;52.24;101214.19;4956477;28;20050;-74
2021/04/16 06:16:41;;;;;;;10.88;4.93;;;;;;;9.19;51.10;101215.38;4960234;28;20070;-75
2021/04/16 06:19:26;;;;;;;10.68;2.80;;;;;;;9.37;51.66;101220.78;4943797;29;20057;-76
2021/04/16 06:22:12;;;;;;;10.50;4.65;;;;;;;9.43;50.77;101222.34;4942024;29;20066;-75
2021/04/16 06:24:56;;;;;;;;;;;;;;;9.63;49.93;101226.63;4946560;28;20050;-75
2021/04/16 06:27:42;;;;;;;14.18;4.40;;;;;;;9.85;48.73;101223.28;4958694;28;19915;-75
2021/04/16 06:30:28;;;;;;;12.60;4.78;;;;;;;9.97;48.57;101225.50;4956799;28;20058;-75
2021/04/16 06:33:13;;;;;;;16.83;5.20;;;;;;;10.12;48.98;101230.69;4945427;28;20050;-75
2021/04/16 06:36:04;;;;;;;8.88;3.40;;;;;;;10.22;48.27;101235.97;4988202;23;20552;-82
2021/04/16 06:38:49;;;;;;;11.43;4.75;;;;;;;10.30;48.06;101232.56;4954866;28;20525;-83
2021/04/16 06:41:38;;;;;;;9.48;3.40;;;;;;;10.36;48.13;101230.56;4957112;28;20050;-82
2021/04/16 06:44:29;;;;;;;13.00;4.90;;;;;;;10.38;47.65;101231.84;4946347;29;20058;-81
2021/04/16 06:47:34;;;;;;;10.02;4.63;;;;;;;10.36;47.74;101227.84;4957674;28;20414;-82
2021/04/16 06:50:20;;;;;;;7.53;3.97;;;;;;;10.43;45.72;101233.66;4947225;28;20405;-83
2021/04/16 06:53:31;;;;;;;6.15;3.80;;;;;;;10.38;43.36;101231.03;4958585;28;20054;-83
2021/04/16 06:56:37;;;;;;;10.65;3.90;;;;;;;10.35;44.12;101218.88;4940985;29;20313;-83
2021/04/16 06:59:31;;;;;;;7.18;4.13;;;;;;;10.49;43.79;101232.47;4958514;28;20058;-83
2021/04/16 07:02:17;;;;;;;8.13;4.45;;;;;;;10.62;43.81;101226.22;4956822;28;20054;-83
2021/04/16 07:05:04;;;;;;;6.35;4.55;;;;;;;10.72;45.41;101224.09;4960108;28;20050;-83
2021/04/16 07:07:49;;;;;;;7.55;4.13;;;;;;;10.87;43.61;101233.06;4959170;28;20050;-82
2021/04/16 07:10:39;;;;;;;10.25;4.05;;;;;;;11.09;42.83;101230.41;4956132;28;20046;-82
2021/04/16 07:13:32;;;;;;;13.50;5.07;;;;;;;11.23;47.73;101231.16;4959440;28;20058;-82
2021/04/16 07:16:22;;;;;;;10.35;5.40;;;;;;;11.11;47.39;101229.00;4955007;29;20047;-80
2021/04/16 07:19:16;;;;;;;13.85;5.97;;;;;;;11.16;46.51;101233.50;4955734;28;20066;-84
2021/04/16 07:22:25;;;;;;;10.13;4.00;;;;;;;11.18;45.44;101233.19;4959043;28;20058;-83
2021/04/16 07:25:18;;;;;;;10.45;4.97;;;;;;;11.20;44.47;101242.69;4942838;29;20062;-83
2021/04/16 07:28:28;;;;;;;6.82;4.30;;;;;;;11.35;44.39;101239.59;4959785;28;20039;-83
2021/04/16 07:31:27;;;;;;;8.52;4.72;;;;;;;11.33;45.94;101249.19;4953274;29;20054;-83
2021/04/16 07:34:28;;;;;;;8.48;5.28;;;;;;;11.31;46.41;101244.06;4959113;28;20065;-83
2021/04/16 07:37:20;;;;;;;7.63;5.10;;;;;;;11.53;45.39;101249.53;4955512;28;20050;-82
2021/04/16 07:40:14;;;;;;;9.85;4.85;;;;;;;11.65;43.16;101240.00;4954554;28;20538;-81
2021/04/16 07:42:59;;;;;;;15.45;5.35;;;;;;;11.73;43.39;101237.38;4944749;29;20541;-83
2021/04/16 07:45:47;;;;;;;8.95;4.95;;;;;;;11.87;43.40;101240.84;4961129;28;20047;-82
2021/04/16 07:48:34;;;;;;;13.70;5.65;;;;;;;12.12;42.79;101242.09;4959742;28;20054;-82
2021/04/16 07:51:31;;;;;;;10.70;4.78;;;;;;;12.07;43.28;101244.16;4957904;28;20422;-80
2021/04/16 07:54:29;;;;;;;10.80;5.03;;;;;;;12.17;42.57;101243.91;4955500;28;20050;-81
2021/04/16 07:57:21;;;;;;;25.25;6.28;;;;;;;12.38;43.63;101244.97;4958524;28;20438;-83
2021/04/16 08:00:12;;;;;;;6.30;4.45;;;;;;;12.37;42.90;101251.53;4942957;29;20058;-83
2021/04/16 08:03:25;;;;;;;15.07;5.30;;;;;;;12.45;42.68;101239.84;4955091;29;20046;-83
2021/04/16 08:06:29;;;;;;;10.77;5.20;;;;;;;12.67;41.98;101247.16;4957055;28;20050;-83
2021/04/16 08:09:35;;;;;;;10.38;4.78;;;;;;;12.77;41.66;101241.41;4940937;29;20058;-84
2021/04/16 08:12:25;;;;;;;7.88;5.05;;;;;;;12.74;43.09;101245.59;4957431;28;20421;-83
2021/04/16 08:15:28;;;;;;;9.13;5.30;;;;;;;13.07;41.25;101250.63;4955378;28;20050;-83
2021/04/16 08:18:30;;;;;;;9.00;5.15;;;;;;;13.03;40.58;101250.47;4958521;28;20058;-83
2021/04/16 08:21:21;;;;;;;6.85;4.72;;;;;;;12.99;40.47;101252.25;4955707;28;20054;-83
2021/04/16 08:24:22;;;;;;;8.68;5.25;;;;;;;13.26;40.53;101241.03;4958603;28;20058;-83
2021/04/16 08:27:34;;;;;;;8.90;4.95;;;;;;;13.34;39.71;101244.94;4956520;28;20042;-81
2021/04/16 08:30:55;;;;;;;7.80;5.20;;;;;;;13.42;40.22;101246.03;4958852;28;20513;-82
2021/04/16 08:33:48;;;;;;;6.32;4.45;;;;;;;13.59;39.23;101243.31;4956498;28;20070;-83
2021/04/16 08:36:39;;;;;;;7.85;3.97;;;;;;;13.40;37.80;101243.66;4957321;28;20066;-82
2021/04/16 08:39:32;;;;;;;11.27;5.57;;;;;;;13.61;38.07;101243.81;4957018;28;20421;-83
2021/04/16 08:42:27;;;;;;;7.57;4.32;;;;;;;13.75;37.10;101249.09;4954534;28;20111;-83
2021/04/16 08:45:16;;;;;;;9.45;4.75;;;;;;;13.76;35.29;101239.78;4958322;28;20049;-82
2021/04/16 08:48:14;;;;;;;11.43;4.40;;;;;;;14.09;33.76;101240.81;4942436;29;20054;-83
2021/04/16 08:51:10;;;;;;;18.77;4.50;;;;;;;13.92;34.58;101243.59;4960070;28;20047;-82
2021/04/16 08:54:14;;;;;;;10.10;4.45;;;;;;;13.90;34.01;101238.47;4959656;28;20058;-82
2021/04/16 08:57:09;;;;;;;6.72;3.50;;;;;;;14.02;32.12;101230.38;4954187;28;20042;-83
2021/04/16 09:00:03;;;;;;;12.38;4.10;;;;;;;13.89;30.05;101233.31;4957762;29;20059;-83
2021/04/16 09:02:55;;;;;;;8.98;3.05;;;;;;;14.20;29.99;101238.53;4956132;29;20054;-82
2021/04/16 09:06:02;;;;;;;8.27;3.13;;;;;;;14.40;31.08;101241.41;4958540;29;20054;-83
2021/04/16 09:08:49;;;;;;;6.63;3.35;;;;;;;14.40;31.73;101237.88;4956503;29;20047;-81
2021/04/16 09:11:46;;;;;;;6.70;3.38;;;;;;;14.28;31.98;101232.22;4953950;29;20058;-81
2021/04/16 09:14:32;;;;;;;10.57;4.13;;;;;;;14.23;33.02;101229.66;4959507;29;20050;-83
2021/04/16 09:17:17;;;;;;;6.28;3.45;;;;;;;14.20;33.17;101233.06;4954906;28;20043;-83
2021/04/16 09:20:03;;;;;;;5.93;3.33;;;;;;;14.18;32.82;101233.38;4948497;28;20054;-81
2021/04/16 09:22:52;;;;;;;6.28;3.20;;;;;;;14.49;30.73;101239.44;4960990;28;20054;-84
2021/04/16 09:25:47;;;;;;;6.13;2.95;;;;;;;14.65;31.86;101228.72;4960173;28;20058;-83
2021/04/16 09:28:36;;;;;;;15.95;4.22;;;;;;;14.58;31.40;101222.97;4956808;28;20050;-84
2021/04/16 09:31:24;;;;;;;7.90;4.03;;;;;;;14.53;31.28;101221.22;4960541;28;20045;-84
2021/04/16 09:34:19;;;;;;;6.10;3.50;;;;;;;14.52;32.18;101213.34;4958458;28;20079;-84
2021/04/16 09:37:24;;;;;;;8.38;3.03;;;;;;;14.73;31.19;101213.41;4957797;28;20047;-83
2021/04/16 09:40:12;;;;;;;13.82;4.25;;;;;;;14.78;31.20;101203.03;4958963;28;20058;-84
2021/04/16 09:43:18;;;;;;;9.98;4.38;;;;;;;14.83;31.55;101211.06;4956684;28;20054;-84
2021/04/16 09:46:32;;;;;;;5.72;3.13;;;;;;;14.93;29.68;101202.47;4959889;28;20054;-84
2021/04/16 09:49:23;;;;;;;9.35;3.58;;;;;;;14.96;30.77;101209.22;4962193;28;20066;-84
2021/04/16 09:52:27;;;;;;;7.68;3.58;;;;;;;14.93;29.78;101204.44;4960727;28;20054;-80
2021/04/16 09:55:40;;;;;;;7.25;3.10;;;;;;;15.19;32.00;101205.00;4957581;28;20055;-85
2021/04/16 09:58:31;;;;;;;6.05;3.53;;;;;;;15.05;30.15;101199.00;4960412;28;20050;-84
2021/04/16 10:01:22;;;;;;;8.95;4.35;;;;;;;15.14;29.96;101186.03;4957952;28;20053;-81
2021/04/16 10:04:07;;;;;;;7.47;3.45;;;;;;;15.14;29.00;101188.78;4962597;28;20058;-85
2021/04/16 10:06:53;;;;;;;5.00;2.40;;;;;;;15.12;29.38;101184.78;4946309;29;20050;-84
2021/04/16 10:09:38;;;;;;;6.22;3.65;;;;;;;15.42;28.09;101189.03;4958052;28;20536;-86
2021/04/16 10:12:33;;;;;;;6.63;3.78;;;;;;;15.49;27.83;101183.81;4947384;28;20067;-84
2021/04/16 10:15:35;;;;;;;7.47;3.53;;;;;;;15.41;28.00;101180.03;4959112;28;20061;-86
2021/04/16 10:18:30;;;;;;;6.32;4.00;;;;;;;15.37;28.05;101178.28;4956515;28;20046;-86
2021/04/16 10:21:15;;;;;;;6.63;4.00;;;;;;;15.45;27.52;101171.13;4959596;28;20529;-85
2021/04/16 12:41:37;;;;;;;8.30;3.70;;;;;;;31.25;8.74;101092.25;4982322;23;20073;31
2021/04/16 12:44:28;;;;;;;4.97;3.42;;;;;;;29.50;10.03;101080.50;4910572;29;20051;-81
2021/04/16 12:47:19;;;;;;;7.50;3.92;;;;;;;26.45;11.64;101083.97;4939220;29;20043;-83
2021/04/16 12:50:06;;;;;;;4.22;2.88;;;;;;;27.64;11.16;101080.84;4946994;28;20042;-83
2021/04/16 12:52:53;;;;;;;6.07;3.45;;;;;;;30.13;9.72;101089.34;4927732;29;20103;-82
2021/04/16 12:55:39;;;;;;;4.32;2.92;;;;;;;29.81;9.69;101080.16;4936697;29;20416;-82
2021/04/16 12:58:30;;;;;;;4.18;2.70;;;;;;;30.02;9.83;101079.66;4921061;29;20063;-82
2021/04/16 13:01:25;;;;;;;6.68;3.97;;;;;;;32.04;7.96;101076.47;4926500;29;20055;-82
2021/04/16 13:04:12;;;;;;;10.52;3.40;;;;;;;31.61;8.56;101074.28;4936702;29;20056;-81
2021/04/16 13:06:59;;;;;;;8.13;2.90;;;;;;;33.05;7.52;101065.56;4928097;29;20543;-81
2021/04/16 13:09:43;;;;;;;9.65;3.53;;;;;;;28.40;11.25;101053.97;4951333;28;20953;-79
2021/04/16 13:12:29;;;;;;;8.63;3.33;;;;;;;27.47;12.19;101054.75;4933124;29;20531;-79
2021/04/16 13:15:15;;;;;;;12.77;3.60;;;;;;;29.89;10.52;101064.72;4919166;29;20059;-79
2021/04/16 13:18:05;;;;;;;4.07;3.00;;;;;;;30.95;9.71;101062.63;4922153;29;20056;-80
2021/04/16 13:20:50;;;;;;;14.35;3.70;;;;;;;29.61;10.73;101055.78;4918881;29;20122;-79
2021/04/16 13:23:35;;;;;;;11.45;3.78;;;;;;;29.76;9.79;101042.22;4930699;29;20063;-80
2021/04/16 13:26:21;;;;;;;8.52;2.70;;;;;;;29.43;10.28;101033.00;4913707;29;20063;-80
2021/04/16 13:29:06;;;;;;;8.55;3.35;;;;;;;27.35;11.62;101038.56;4930131;29;20051;-80
2021/04/16 13:31:51;;;;;;;6.43;3.40;;;;;;;28.45;10.87;101031.88;4921593;29;20536;-79
2021/04/16 13:34:40;;;;;;;5.82;3.03;;;;;;;25.50;12.28;101031.38;4923970;29;20055;-80
2021/04/16 13:37:30;;;;;;;6.47;3.30;;;;;;;27.40;11.45;101029.72;4921850;29;20071;-80
2021/04/16 13:40:15;;;;;;;5.28;2.88;;;;;;;25.38;13.28;101017.16;4919818;29;20055;-78
2021/04/16 13:43:01;;;;;;;5.93;2.67;;;;;;;27.16;11.79;101014.13;4922764;29;20051;-79
2021/04/16 13:45:46;;;;;;;4.35;2.67;;;;;;;28.47;11.22;101011.88;4923306;29;20397;-79
2021/04/16 13:48:32;;;;;;;4.72;3.15;;;;;;;23.05;15.75;101007.31;4919656;29;20520;-78
2021/04/16 13:51:19;;;;;;;7.95;3.58;;;;;;;20.31;18.01;101007.00;4932444;29;20055;-78
2021/04/16 13:54:06;;;;;;;5.32;3.53;;;;;;;20.83;17.77;101002.50;4920298;29;20059;-78
2021/04/16 13:56:52;;;;;;;5.88;3.75;;;;;;;19.27;20.11;100997.41;4917544;29;20413;-80
2021/04/16 13:59:37;;;;;;;6.05;4.07;;;;;;;18.13;22.05;100999.81;4937353;29;20055;-80
2021/04/16 14:02:32;;;;;;;8.70;4.75;;;;;;;20.89;17.82;100992.69;4935949;29;20051;-79
2021/04/16 14:05:24;;;;;;;14.00;5.28;;;;;;;24.57;14.81;100993.34;4936291;29;20059;-78
2021/04/16 14:08:21;;;;;;;5.68;3.80;;;;;;;21.03;18.15;100990.09;4946600;29;20539;-80
2021/04/16 14:11:07;;;;;;;23.40;5.05;;;;;;;19.32;19.76;100972.28;4951403;29;20046;-79
2021/04/16 14:13:53;;;;;;;6.10;4.13;;;;;;;19.33;19.28;100979.41;4934356;29;20062;-79
2021/04/16 14:16:39;;;;;;;;;;;;;;;20.20;19.09;100978.41;4933000;29;20051;-79
2021/04/16 14:19:30;;;;;;;8.25;3.92;;;;;;;18.36;21.19;100959.41;4937327;29;20399;-80
2021/04/16 14:22:30;;;;;;;5.38;3.92;;;;;;;17.33;22.48;100974.66;4940948;29;20051;-79
2021/04/16 14:25:26;;;;;;;6.07;4.13;;;;;;;17.73;22.38;100958.78;4940515;29;20043;-77
2021/04/16 14:28:14;;;;;;;9.48;4.55;;;;;;;16.75;23.37;100970.75;4933733;29;20050;-78
2021/04/16 14:30:59;;;;;;;7.28;4.28;;;;;;;16.47;24.18;100970.72;4929021;29;20051;-78
2021/04/16 14:33:44;;;;;;;;;;;;;;;16.69;23.65;100975.69;4924763;29;20051;-79
2021/04/16 14:36:29;;;;;;;10.55;4.18;;;;;;;16.95;23.68;100972.50;4935957;29;19914;-79
2021/04/16 14:39:14;;;;;;;;;;;;;;;16.60;23.59;100973.13;4940324;29;20157;-79
2021/04/16 14:42:00;;;;;;;5.32;3.60;;;;;;;16.80;22.99;100965.00;4929602;29;19915;-79
2021/04/16 14:44:45;;;;;;;9.15;4.63;;;;;;;16.99;23.26;100956.91;4936971;29;20051;-79
2021/04/16 14:47:30;;;;;;;8.27;4.63;;;;;;;16.84;24.98;100966.72;4928660;29;20055;-78
2021/04/16 14:50:15;;;;;;;;;;;;;;;16.99;25.49;100968.69;4939956;29;20051;-79
2021/04/16 14:53:19;;;;;;;9.63;4.55;;;;;;;16.75;24.84;100960.56;4924372;29;19915;-79
2021/04/16 14:56:07;;;;;;;9.55;4.10;;;;;;;16.58;24.38;100964.41;4939259;29;20051;-79
2021/04/16 14:59:10;;;;;;;11.68;4.18;;;;;;;16.91;25.08;100955.13;4941119;28;20055;-79
2021/04/16 15:01:56;;;;;;;11.30;4.60;;;;;;;16.77;24.05;100955.50;4925610;29;20055;-80
2021/04/16 15:04:41;;;;;;;8.00;4.65;;;;;;;16.71;24.45;100958.88;4940487;29;20609;-80
2021/04/16 15:07:31;;;;;;;8.10;5.00;;;;;;;16.56;25.48;100949.41;4937856;29;20117;-80
2021/04/16 15:10:24;;;;;;;12.85;5.63;;;;;;;16.81;26.03;100950.91;4928605;29;20050;-79
2021/04/16 15:13:17;;;;;;;10.95;5.57;;;;;;;16.24;27.03;100951.25;4926370;29;20544;-80
2021/04/16 15:16:06;;;;;;;8.18;5.18;;;;;;;16.05;28.13;100946.34;4921793;29;20055;-79
2021/04/16 15:18:51;;;;;;;9.05;5.60;;;;;;;15.80;28.86;100951.06;4928130;29;20544;-81
2021/04/16 15:21:37;;;;;;;8.18;5.53;;;;;;;15.57;27.68;100943.69;4950821;28;20058;-80
2021/04/16 15:24:22;;;;;;;;;;;;;;;15.39;27.93;100949.34;4934529;29;20047;-79
2021/04/16 15:27:19;;;;;;;10.15;5.25;;;;;;;15.07;28.72;100947.50;4948686;29;19915;-87
2021/04/16 15:30:15;;;;;;;19.58;5.75;;;;;;;15.40;29.18;100950.16;4947063;29;20039;-87